Time;durP1;ratioP1;P1;durP2;ratioP2;P2;SDS_P1;SDS_P2;PMS_P1;PMS_P2;Temp;Humidity;BMP_temperature;BMP_pressure;BME280_temperature;BME280_humidity;BME280_pressure;Samples;Min_cycle;Max_cycle;Signal;HPM_P1;HPM_P2
2022/01/14 00:00:23;;;;;;;22.33;9.80;;;;;;;1.06;76.37;101802.97;4500496;31;20096;-67
2022/01/14 00:02:50;;;;;;;25.42;11.15;;;;;;;0.91;76.89;101796.19;4500477;31;20525;-67
2022/01/14 00:05:17;;;;;;;26.58;11.38;;;;;;;0.83;77.37;101783.66;4500528;31;20142;-67
2022/01/14 00:07:45;;;;;;;27.85;11.30;;;;;;;0.61;78.41;101780.00;4485835;31;20114;-67
2022/01/14 00:10:12;;;;;;;22.33;9.50;;;;;;;0.65;78.56;101786.22;4500296;31;20415;-67
2022/01/14 00:12:47;;;;;;;22.60;9.55;;;;;;;0.62;78.64;101783.47;4500346;31;20179;-67
2022/01/14 00:15:28;;;;;;;28.00;10.65;;;;;;;0.60;79.25;101775.63;4500376;31;20439;-67
2022/01/14 00:17:55;;;;;;;21.35;9.48;;;;;;;0.48;80.09;101775.00;4500458;31;20154;-67
2022/01/14 00:20:23;;;;;;;21.35;9.95;;;;;;;0.37;80.70;101771.84;4500088;31;20493;-67
2022/01/14 00:22:50;;;;;;;23.95;10.25;;;;;;;0.46;80.16;101774.03;4500198;31;20521;-67
2022/01/14 00:33:36;;;;;;;23.50;9.15;;;;;;;0.15;80.96;101766.38;4501198;31;20447;-67
2022/01/14 00:36:03;;;;;;;26.67;9.95;;;;;;;-0.01;81.45;101756.88;4502427;31;20100;-67
2022/01/14 00:38:30;;;;;;;21.85;9.77;;;;;;;-0.11;81.85;101746.84;4502402;31;20103;-67
2022/01/14 00:40:58;;;;;;;24.05;9.90;;;;;;;-0.11;82.16;101750.31;4502467;31;20083;-67
2022/01/14 00:43:25;;;;;;;23.95;10.32;;;;;;;-0.25;82.56;101748.69;4502327;31;20436;-67
2022/01/14 00:45:53;;;;;;;24.05;10.77;;;;;;;-0.33;82.94;101755.16;4502353;31;20107;-67
2022/01/14 00:48:20;;;;;;;26.35;10.60;;;;;;;-0.36;83.25;101752.41;4502302;31;20137;-67
2022/01/14 00:50:48;;;;;;;31.80;11.12;;;;;;;-0.41;83.30;101752.16;4502596;31;20143;-67
2022/01/14 00:53:15;;;;;;;34.28;11.05;;;;;;;-0.58;84.00;101752.94;4502262;31;20091;-67
2022/01/14 00:55:50;;;;;;;27.05;10.68;;;;;;;-0.60;84.43;101751.97;4502217;31;20095;-67
2022/01/14 01:01:03;;;;;;;32.35;11.40;;;;;;;-0.66;84.66;101744.75;4502443;31;20091;-67
2022/01/14 01:03:32;;;;;;;26.60;10.43;;;;;;;-0.66;85.38;101734.41;4502365;31;20121;-67
2022/01/14 01:06:00;;;;;;;25.60;9.85;;;;;;;-0.57;85.37;101744.38;4502221;31;20100;-67
2022/01/14 01:08:28;;;;;;;30.48;11.82;;;;;;;-0.56;84.96;101743.56;4502408;31;20111;-67
2022/01/14 01:10:56;;;;;;;29.00;10.82;;;;;;;-0.52;85.25;101745.53;4502178;31;20151;-67
2022/01/14 01:13:28;;;;;;;26.52;10.38;;;;;;;-0.39;84.77;101740.22;4502061;31;20092;-67
2022/01/14 01:15:56;;;;;;;27.85;10.57;;;;;;;-0.40;85.12;101742.69;4502236;31;20134;-67
2022/01/14 01:18:24;;;;;;;24.95;10.45;;;;;;;-0.37;85.56;101735.09;4501890;31;22350;-67
2022/01/14 01:20:52;;;;;;;22.60;10.73;;;;;;;-0.40;85.88;101737.53;4502285;31;20088;-67
2022/01/14 01:23:20;;;;;;;32.15;11.98;;;;;;;-0.36;85.28;101732.56;4502007;31;20115;-67
2022/01/14 01:25:55;;;;;;;27.48;11.68;;;;;;;-0.51;85.78;101735.25;4502323;31;20104;-67
2022/01/14 01:28:22;;;;;;;24.83;9.88;;;;;;;-0.60;85.60;101739.94;4502427;31;20144;-67
2022/01/14 01:33:18;;;;;;;30.23;12.20;;;;;;;-0.67;86.25;101735.22;4501963;31;20107;-67
2022/01/14 01:35:47;;;;;;;25.45;12.15;;;;;;;-0.76;86.19;101729.53;4502029;31;20498;-67
2022/01/14 01:38:16;;;;;;;26.33;12.13;;;;;;;-0.75;86.29;101718.34;4501774;31;20492;-67
2022/01/14 01:40:46;;;;;;;27.95;12.30;;;;;;;-0.64;85.46;101719.84;4502001;31;20604;-67
2022/01/14 01:43:15;;;;;;;28.50;11.48;;;;;;;-0.58;84.35;101709.81;4501954;31;20158;-67
2022/01/14 01:45:47;;;;;;;24.98;11.10;;;;;;;-0.59;85.21;101717.53;4501647;31;20183;-67
2022/01/14 01:48:14;;;;;;;24.23;10.10;;;;;;;-0.59;86.03;101705.47;4501958;31;20118;-67
2022/01/14 01:50:41;;;;;;;23.27;10.35;;;;;;;-0.56;84.85;101708.22;4501874;31;20099;-67
2022/01/14 01:53:09;;;;;;;24.73;8.93;;;;;;;-0.54;86.18;101710.88;4501818;31;20600;-67
2022/01/14 01:55:36;;;;;;;24.67;9.90;;;;;;;-0.54;86.27;101703.12;4501973;31;20471;-67
2022/01/14 01:58:03;;;;;;;17.80;8.98;;;;;;;-0.50;87.10;101707.63;4501889;31;20110;-67
2022/01/14 02:00:31;;;;;;;26.65;9.85;;;;;;;-0.30;86.90;101699.25;4487246;31;20095;-67
2022/01/14 02:02:59;;;;;;;25.55;10.45;;;;;;;-0.36;87.48;101688.56;4501948;31;20163;-67
2022/01/14 02:05:27;;;;;;;27.73;9.63;;;;;;;-0.28;86.81;101689.88;4501793;31;20183;-67
2022/01/14 02:07:54;;;;;;;22.77;10.00;;;;;;;-0.31;87.12;101684.53;4501803;31;20142;-67
2022/01/14 02:10:22;;;;;;;24.90;10.02;;;;;;;-0.38;87.35;101681.53;4501743;31;20093;-67
2022/01/14 02:12:52;;;;;;;23.73;8.85;;;;;;;-0.51;87.70;101677.41;4501793;31;20080;-67
2022/01/14 02:15:29;;;;;;;25.23;10.23;;;;;;;-0.49;87.07;101676.69;4486949;31;20104;-67
2022/01/14 02:23:16;;;;;;;27.23;11.05;;;;;;;-0.50;87.83;101667.09;4501815;31;20084;-67
2022/01/14 02:25:45;;;;;;;21.37;10.43;;;;;;;-0.59;87.91;101664.03;4501612;31;20441;-67
2022/01/14 02:28:16;;;;;;;27.13;10.70;;;;;;;-0.61;87.18;101657.88;4501550;31;20540;-67
2022/01/14 02:30:46;;;;;;;23.38;9.73;;;;;;;-0.64;88.60;101652.53;4501711;31;20105;-67
2022/01/14 02:33:15;;;;;;;22.58;9.57;;;;;;;-0.64;87.26;101659.41;4501595;31;20096;-67
2022/01/14 02:35:45;;;;;;;21.95;10.15;;;;;;;-0.66;87.28;101664.53;4501620;31;20121;-67
2022/01/14 02:38:14;;;;;;;20.83;8.65;;;;;;;-0.70;86.17;101657.41;4501597;31;20118;-67
2022/01/14 02:40:42;;;;;;;21.10;9.20;;;;;;;-0.64;85.69;101654.22;4501726;31;20115;-67
2022/01/14 02:43:13;;;;;;;19.45;9.27;;;;;;;-0.66;84.97;101637.75;4501485;31;20123;-67
2022/01/14 02:45:46;;;;;;;23.27;9.80;;;;;;;-0.69;84.81;101646.25;4501644;31;20111;-67
2022/01/14 02:48:14;;;;;;;23.05;9.43;;;;;;;-0.65;84.59;101640.41;4501523;31;20630;-67
2022/01/14 02:50:54;;;;;;;24.17;9.68;;;;;;;-0.80;85.01;101637.00;4501364;31;20115;-67
2022/01/14 02:53:30;;;;;;;26.02;10.02;;;;;;;-0.87;85.21;101627.13;4501427;31;20484;-67
2022/01/14 02:56:02;;;;;;;22.60;9.20;;;;;;;-0.86;84.31;101628.91;4500599;31;20228;-67
2022/01/14 02:58:32;;;;;;;16.00;7.53;;;;;;;-0.88;84.36;101623.66;4501412;31;20105;-67
2022/01/14 03:01:04;;;;;;;19.58;8.25;;;;;;;-0.97;84.70;101624.03;4501439;31;20107;-67
2022/01/14 03:03:33;;;;;;;27.13;10.45;;;;;;;-0.88;83.83;101620.16;4501555;31;20157;-67
2022/01/14 03:06:05;;;;;;;25.35;9.77;;;;;;;-0.83;83.54;101618.72;4501415;31;20138;-67
2022/01/14 03:08:33;;;;;;;28.05;10.45;;;;;;;-0.87;83.63;101620.25;4501310;31;20845;-67
2022/01/14 03:11:09;;;;;;;22.73;9.93;;;;;;;-1.00;83.69;101612.63;4501485;31;20126;-67
2022/01/14 03:13:37;;;;;;;23.30;10.60;;;;;;;-0.84;83.47;101617.84;4501308;31;20092;-68
2022/01/14 03:16:05;;;;;;;21.95;10.15;;;;;;;-1.03;84.21;101612.47;4501357;31;20175;-67
2022/01/14 03:18:47;;;;;;;21.08;10.65;;;;;;;-1.11;84.81;101611.16;4501007;31;20106;-67
2022/01/14 03:21:17;;;;;;;25.35;10.30;;;;;;;-1.27;85.14;101606.84;4501343;31;20164;-67
2022/01/14 03:23:49;;;;;;;20.88;9.48;;;;;;;-1.28;85.09;101598.19;4501082;31;20122;-67
2022/01/14 03:26:20;;;;;;;25.60;10.65;;;;;;;-1.18;84.64;101598.69;4501084;31;20138;-67
2022/01/14 03:28:48;;;;;;;23.20;10.52;;;;;;;-1.16;83.82;101590.22;4501052;31;20079;-67
2022/01/14 03:31:15;;;;;;;25.48;9.85;;;;;;;-1.22;84.25;101585.59;4501073;31;20369;-67
2022/01/14 03:33:43;;;;;;;26.50;11.23;;;;;;;-1.28;85.05;101593.00;4500928;31;20132;-67
2022/01/14 03:36:11;;;;;;;23.20;10.45;;;;;;;-1.21;84.77;101587.38;4500882;31;20373;-67
2022/01/14 03:38:39;;;;;;;19.92;9.10;;;;;;;-1.04;85.38;101587.41;4501073;31;20129;-67
2022/01/14 03:41:06;;;;;;;23.48;9.93;;;;;;;-1.05;88.72;101586.53;4500917;31;20418;-67
2022/01/14 03:43:35;;;;;;;21.67;9.57;;;;;;;-1.14;88.58;101590.31;4500682;31;20127;-67
2022/01/14 03:46:03;;;;;;;22.60;9.25;;;;;;;-1.16;90.14;101586.75;4500731;31;20099;-67
2022/01/14 03:48:30;;;;;;;23.08;9.45;;;;;;;-1.04;89.20;101583.13;4500694;31;20631;-67
2022/01/14 03:50:57;;;;;;;28.35;11.30;;;;;;;-1.09;89.56;101583.69;4500892;31;20088;-67
2022/01/14 03:53:25;;;;;;;24.20;10.05;;;;;;;-1.00;89.80;101576.41;4500708;31;20123;-67
2022/01/14 03:55:52;;;;;;;25.27;10.07;;;;;;;-1.01;89.29;101566.88;4500546;31;20443;-67
2022/01/14 03:58:40;;;;;;;22.33;9.93;;;;;;;-0.97;88.15;101574.88;4500566;31;20472;-67
2022/01/14 04:01:10;;;;;;;24.42;10.55;;;;;;;-1.06;88.91;101564.06;4500507;31;20091;-67
2022/01/14 04:03:38;;;;;;;25.00;10.10;;;;;;;-1.16;87.83;101561.78;4500629;31;20076;-67
2022/01/14 04:06:06;;;;;;;24.95;10.52;;;;;;;-1.14;88.11;101559.25;4500529;31;20122;-67
2022/01/14 04:08:33;;;;;;;22.85;9.63;;;;;;;-1.16;87.09;101560.91;4501651;31;20673;-67
2022/01/14 04:11:02;;;;;;;22.50;9.27;;;;;;;-1.32;87.22;101557.47;4502758;31;20155;-67
2022/01/14 04:16:07;;;;;;;22.65;9.10;;;;;;;-1.56;88.32;101556.09;4503043;31;20479;-67
2022/01/14 04:18:34;;;;;;;31.67;11.52;;;;;;;-1.60;88.31;101561.91;4502545;31;20130;-67
2022/01/14 04:21:02;;;;;;;31.15;11.50;;;;;;;-1.74;90.33;101561.12;4502690;31;20102;-67
2022/01/14 04:23:29;;;;;;;29.00;11.20;;;;;;;-1.76;90.42;101560.16;4502619;31;20099;-67
2022/01/14 04:25:57;;;;;;;26.67;11.60;;;;;;;-1.61;88.90;101548.09;4502556;31;20126;-67
2022/01/14 04:28:26;;;;;;;26.65;10.13;;;;;;;-1.47;87.61;101542.00;4502561;31;20615;-67
2022/01/14 04:30:54;;;;;;;26.42;10.60;;;;;;;-1.54;88.08;101539.88;4502354;31;20095;-67
2022/01/14 04:33:23;;;;;;;28.90;12.07;;;;;;;-1.55;87.14;101529.47;4502414;31;20088;-67
2022/01/14 04:35:51;;;;;;;27.08;11.50;;;;;;;-1.57;87.35;101531.06;4502551;31;20123;-67
2022/01/14 04:38:18;;;;;;;33.63;12.45;;;;;;;-1.46;87.29;101515.34;4502465;31;20562;-67
2022/01/14 04:40:45;;;;;;;32.70;12.23;;;;;;;-1.45;88.76;101519.72;4502355;31;20476;-67
2022/01/14 04:43:16;;;;;;;31.48;12.27;;;;;;;-1.67;89.23;101521.91;4502330;31;20092;-67
2022/01/14 04:45:56;;;;;;;26.42;11.43;;;;;;;-1.81;89.61;101512.50;4502358;31;20092;-67
2022/01/14 04:48:23;;;;;;;32.88;11.75;;;;;;;-1.94;92.57;101529.03;4502400;31;20435;-67
2022/01/14 04:50:52;;;;;;;30.65;11.73;;;;;;;-1.85;90.82;101518.31;4502320;31;20126;-67
2022/01/14 04:53:20;;;;;;;26.60;10.95;;;;;;;-1.85;91.31;101520.88;4502396;31;20096;-67
2022/01/14 04:55:51;;;;;;;31.00;10.63;;;;;;;-1.80;92.12;101509.09;4502445;31;20721;-67
2022/01/14 04:58:19;;;;;;;32.35;10.43;;;;;;;-1.45;91.12;101503.28;4502277;31;20194;-67
2022/01/14 05:00:46;;;;;;;28.02;11.10;;;;;;;-1.55;91.67;101494.16;4502229;31;20091;-67
2022/01/14 05:03:13;;;;;;;28.25;11.23;;;;;;;-1.57;90.90;101493.19;4502253;31;20092;-67
2022/01/14 05:05:44;;;;;;;26.12;10.48;;;;;;;-1.69;90.80;101490.84;4502186;31;20096;-67
2022/01/14 05:08:18;;;;;;;27.30;11.32;;;;;;;-1.54;89.56;101492.47;4502324;31;20138;-67
2022/01/14 05:13:20;;;;;;;28.40;11.40;;;;;;;-1.75;89.99;101495.66;4502743;31;20487;-67
2022/01/14 05:15:48;;;;;;;29.30;11.70;;;;;;;-1.82;90.37;101500.41;4502557;31;20153;-66
2022/01/14 05:18:15;;;;;;;31.95;12.57;;;;;;;-1.77;89.71;101501.53;4502141;31;20076;-66
2022/01/14 05:20:42;;;;;;;25.67;11.65;;;;;;;-1.68;90.30;101491.72;4502494;31;20146;-66
2022/01/14 05:23:10;;;;;;;26.80;12.27;;;;;;;-1.83;90.84;101489.19;4502848;31;20139;-65
2022/01/14 05:25:37;;;;;;;29.05;12.73;;;;;;;-1.83;94.28;101490.87;4502976;31;20092;-66
2022/01/14 05:28:04;;;;;;;25.95;11.88;;;;;;;-1.84;92.60;101486.50;4502989;31;20117;-65
2022/01/14 05:30:32;;;;;;;34.33;13.68;;;;;;;-1.73;90.86;101494.06;4502934;31;20079;-66
2022/01/14 05:32:59;;;;;;;27.87;10.60;;;;;;;-1.63;90.21;101492.84;4503092;31;20088;-66
2022/01/14 05:35:27;;;;;;;31.95;12.18;;;;;;;-1.50;90.30;101491.84;4502901;31;20156;-66
2022/01/14 05:37:55;;;;;;;30.58;12.25;;;;;;;-1.49;89.47;101491.00;4502731;31;20080;-66
2022/01/14 05:40:27;;;;;;;29.92;12.80;;;;;;;-1.47;88.55;101482.53;4502752;31;20110;-66
2022/01/14 05:42:55;;;;;;;36.22;13.35;;;;;;;-1.70;89.35;101495.91;4502838;31;20084;-65
2022/01/14 05:45:22;;;;;;;37.42;14.15;;;;;;;-1.94;91.34;101479.94;4502844;31;20115;-65
2022/01/14 05:47:49;;;;;;;35.88;14.55;;;;;;;-2.11;92.93;101485.84;4502630;31;20147;-66
2022/01/14 05:50:20;;;;;;;32.92;13.55;;;;;;;-1.98;91.42;101488.28;4502884;31;20079;-66
2022/01/14 05:52:48;;;;;;;30.02;13.70;;;;;;;-1.90;91.36;101491.34;4502805;31;20490;-66
2022/01/14 05:55:18;;;;;;;37.33;13.57;;;;;;;-2.02;91.01;101494.97;4502831;31;20095;-66
2022/01/14 05:57:45;;;;;;;34.33;13.70;;;;;;;-1.85;89.78;101495.06;4502814;31;20690;-66
2022/01/14 06:00:15;;;;;;;31.70;13.82;;;;;;;-1.75;89.25;101493.06;4502599;31;20092;-66
2022/01/14 06:02:43;;;;;;;40.63;14.57;;;;;;;-1.82;89.69;101490.06;4502751;31;20796;-66
2022/01/14 06:05:11;;;;;;;45.12;14.57;;;;;;;-1.88;89.83;101489.72;4502749;31;20115;-66
2022/01/14 06:07:38;;;;;;;37.38;14.40;;;;;;;-1.99;90.28;101490.00;4502836;31;20169;-67
2022/01/14 06:10:06;;;;;;;29.37;12.35;;;;;;;-2.04;90.81;101477.66;4502684;31;20791;-66
2022/01/14 06:12:34;;;;;;;31.62;13.80;;;;;;;-1.98;93.34;101486.62;4502398;31;20088;-65
2022/01/14 06:15:01;;;;;;;35.92;12.02;;;;;;;-1.59;92.53;101478.41;4491461;31;20101;-66
2022/01/14 06:17:28;;;;;;;27.48;10.68;;;;;;;-1.79;94.51;101485.06;4484757;31;109546;-66
2022/01/14 06:19:55;;;;;;;20.65;9.65;;;;;;;-1.57;96.98;101487.13;4486661;31;20088;-65
2022/01/14 06:22:23;;;;;;;35.05;13.25;;;;;;;-1.30;97.17;101480.00;4486851;31;20404;-66
2022/01/14 06:24:50;;;;;;;36.92;13.02;;;;;;;-1.21;97.65;101475.28;4487036;31;20096;-66
2022/01/14 06:27:17;;;;;;;32.17;12.88;;;;;;;-1.24;97.94;101470.87;4486779;31;20213;-67
2022/01/14 06:29:44;;;;;;;31.02;11.95;;;;;;;-1.25;99.07;101468.19;4486760;31;20096;-66
2022/01/14 06:32:11;;;;;;;26.27;11.88;;;;;;;-1.25;99.63;101465.59;4485735;31;20425;-66
2022/01/14 06:34:39;;;;;;;28.60;11.57;;;;;;;-1.21;99.77;101468.41;4486735;31;20854;-66
2022/01/14 06:37:06;;;;;;;37.28;12.15;;;;;;;-1.18;99.42;101464.22;4486698;31;20075;-66
2022/01/14 06:39:33;;;;;;;37.92;14.02;;;;;;;-1.21;98.57;101463.25;4486675;31;20096;-66
2022/01/14 06:42:01;;;;;;;30.30;12.15;;;;;;;-1.27;99.38;101462.06;4486627;31;20786;-67
2022/01/14 06:44:28;;;;;;;29.98;12.05;;;;;;;-1.28;98.91;101458.56;4486697;31;20100;-66
2022/01/14 06:46:55;;;;;;;21.83;9.90;;;;;;;-1.30;98.24;101455.03;4486690;31;20489;-66
2022/01/14 06:49:23;;;;;;;26.33;10.65;;;;;;;-1.15;98.16;101459.22;4486554;31;20111;-66
2022/01/14 06:51:50;;;;;;;28.30;9.95;;;;;;;-1.18;96.96;101452.19;4486375;31;20120;-66
2022/01/14 06:54:17;;;;;;;25.40;11.10;;;;;;;-1.18;96.79;101454.75;4493209;31;20156;-65
2022/01/14 06:56:44;;;;;;;26.92;10.63;;;;;;;-0.82;95.88;101460.06;4493242;31;20539;-65
2022/01/14 06:59:12;;;;;;;29.27;10.63;;;;;;;-0.64;94.39;101461.00;4491593;31;20501;-66
2022/01/14 07:01:39;;;;;;;23.85;9.75;;;;;;;-0.45;93.02;101456.75;4493171;31;20155;-66
2022/01/14 07:04:07;;;;;;;28.55;10.48;;;;;;;-0.63;92.94;101460.22;4493708;31;20175;-64
2022/01/14 07:06:34;;;;;;;29.45;12.52;;;;;;;-0.56;92.75;101459.69;4492097;31;20134;-65
2022/01/14 07:09:01;;;;;;;33.20;12.25;;;;;;;-0.45;93.52;101456.75;4476128;31;20129;-65
2022/01/14 07:11:35;;;;;;;37.88;13.55;;;;;;;-0.67;94.98;101449.59;4493662;31;20133;-66
2022/01/14 07:14:05;;;;;;;34.67;14.73;;;;;;;-0.59;94.94;101456.06;4492253;31;20096;-65
2022/01/14 07:16:33;;;;;;;35.78;14.30;;;;;;;-0.53;94.35;101451.19;4492669;31;20105;-66
2022/01/14 07:19:02;;;;;;;32.63;12.93;;;;;;;-0.64;95.15;101442.88;4493688;31;20510;-65
2022/01/14 07:21:34;;;;;;;33.88;12.63;;;;;;;-0.58;94.35;101445.78;4492979;31;20213;-65
2022/01/14 07:24:05;;;;;;;30.62;12.70;;;;;;;-0.55;95.33;101439.88;4492764;31;20100;-65
2022/01/14 07:26:32;;;;;;;33.30;12.95;;;;;;;-0.45;95.58;101438.66;4493163;31;20131;-66
2022/01/14 07:28:59;;;;;;;39.17;15.50;;;;;;;-0.35;94.90;101443.47;4494323;31;20091;-66
2022/01/14 07:31:27;;;;;;;41.28;15.90;;;;;;;-0.19;93.34;101439.91;4500220;31;20126;-66
2022/01/14 07:33:54;;;;;;;48.30;15.90;;;;;;;-0.18;92.36;101445.16;4501009;31;20107;-67
2022/01/14 07:36:21;;;;;;;42.25;16.00;;;;;;;-0.06;91.98;101440.56;4501055;31;20152;-66
2022/01/14 07:38:49;;;;;;;35.03;16.67;;;;;;;0.15;90.03;101434.63;4500782;31;20121;-67
2022/01/14 07:41:16;;;;;;;41.13;17.90;;;;;;;0.10;90.93;101430.91;4500814;31;20168;-66
2022/01/14 07:43:47;;;;;;;38.63;17.27;;;;;;;0.17;89.76;101430.41;4501340;31;20460;-67
2022/01/14 07:46:15;;;;;;;37.17;14.52;;;;;;;0.28;90.94;101424.00;4502807;31;20166;-67
2022/01/14 07:48:42;;;;;;;33.58;14.13;;;;;;;0.42;91.61;101433.28;4503037;31;20144;-66
2022/01/14 07:51:10;;;;;;;26.80;11.63;;;;;;;0.60;91.26;101429.78;4502699;31;20511;-66
2022/01/14 07:53:37;;;;;;;30.52;11.32;;;;;;;0.89;90.29;101437.16;4495575;31;20123;-67
2022/01/14 07:56:07;;;;;;;30.90;11.12;;;;;;;0.98;89.55;101433.19;4495085;31;20083;-66
2022/01/14 07:58:34;;;;;;;27.33;11.27;;;;;;;1.07;89.78;101431.00;4495982;31;20107;-65
2022/01/14 08:01:02;;;;;;;25.12;10.73;;;;;;;1.09;90.02;101429.34;4494478;31;20471;-66
2022/01/14 08:03:30;;;;;;;32.90;13.13;;;;;;;1.54;88.19;101419.13;4494872;31;20212;-66
2022/01/14 08:05:58;;;;;;;29.20;10.52;;;;;;;1.72;87.45;101424.19;4498808;31;20095;-67
2022/01/14 08:08:25;;;;;;;31.42;11.45;;;;;;;1.79;87.83;101410.63;4503528;31;20088;-66
2022/01/14 08:10:52;;;;;;;18.75;9.10;;;;;;;1.94;87.11;101412.94;4503648;31;20096;-67
2022/01/14 08:13:20;;;;;;;33.30;12.57;;;;;;;2.08;87.25;101414.34;4503592;31;20126;-66
2022/01/14 08:15:47;;;;;;;34.30;11.90;;;;;;;2.21;86.34;101421.81;4503410;31;20080;-65
2022/01/14 08:18:15;;;;;;;28.67;10.65;;;;;;;2.46;84.65;101423.63;4503359;31;20153;-66
2022/01/14 08:20:42;;;;;;;29.75;12.93;;;;;;;2.49;84.71;101423.75;4503373;31;20084;-65
2022/01/14 08:23:09;;;;;;;23.48;9.57;;;;;;;2.70;84.09;101423.66;4503508;31;20096;-68
2022/01/14 08:25:36;;;;;;;27.05;9.80;;;;;;;2.85;82.92;101423.31;4503385;31;20494;-67
2022/01/14 08:28:04;;;;;;;27.52;10.45;;;;;;;3.04;82.16;101425.78;4503436;31;20130;-67
2022/01/14 08:30:32;;;;;;;32.15;11.02;;;;;;;3.12;81.43;101410.41;4503315;31;20096;-66
2022/01/14 08:32:59;;;;;;;19.62;7.37;;;;;;;3.25;80.84;101420.44;4503448;31;20771;-65
2022/01/14 08:35:26;;;;;;;19.48;7.85;;;;;;;3.33;80.30;101410.25;4503496;31;20502;-66
2022/01/14 08:37:53;;;;;;;17.73;6.95;;;;;;;3.50;79.87;101403.03;4502939;31;20111;-66
2022/01/14 08:40:21;;;;;;;14.68;6.45;;;;;;;3.62;79.37;101398.19;4495393;31;20413;-66
2022/01/14 08:42:53;;;;;;;13.18;5.72;;;;;;;3.80;78.56;101406.59;4494753;31;20150;-64
2022/01/14 08:45:21;;;;;;;14.27;6.12;;;;;;;3.98;78.75;101395.87;4495801;31;20117;-64
2022/01/14 08:47:52;;;;;;;12.40;5.20;;;;;;;4.21;77.01;101398.31;4494954;31;20099;-65
2022/01/14 08:50:25;;;;;;;16.20;6.62;;;;;;;4.31;76.48;101388.19;4494151;31;20153;-66
2022/01/14 08:52:52;;;;;;;15.55;6.07;;;;;;;4.32;76.18;101381.25;4494747;31;20171;-67
2022/01/14 08:55:21;;;;;;;10.88;5.37;;;;;;;4.58;74.66;101375.87;4495393;31;20092;-65
2022/01/14 08:57:48;;;;;;;15.93;5.80;;;;;;;4.48;74.24;101378.22;4494625;31;20088;-65
2022/01/14 09:00:18;;;;;;;16.70;6.68;;;;;;;4.57;74.57;101372.41;4494079;31;20132;-66
2022/01/14 09:02:53;;;;;;;11.38;5.10;;;;;;;4.65;73.86;101373.50;4494952;31;20763;-66
2022/01/14 09:05:22;;;;;;;10.55;5.25;;;;;;;4.76;73.38;101372.06;4493893;31;20103;-66
2022/01/14 09:07:51;;;;;;;10.13;4.93;;;;;;;4.86;73.02;101372.31;4494839;31;20096;-67
2022/01/14 09:10:20;;;;;;;12.37;5.50;;;;;;;4.99;72.19;101375.31;4495565;31;20761;-66
2022/01/14 09:12:48;;;;;;;12.48;5.62;;;;;;;5.10;71.83;101375.59;4494311;31;20155;-66
2022/01/14 09:15:16;;;;;;;10.70;5.37;;;;;;;5.12;72.11;101362.56;4492120;31;20122;-66
2022/01/14 09:17:43;;;;;;;10.68;5.25;;;;;;;5.22;71.65;101355.00;4494642;31;20122;-67
2022/01/14 09:20:12;;;;;;;9.80;4.90;;;;;;;5.39;71.43;101365.00;4502883;31;20096;-65
2022/01/14 09:22:47;;;;;;;11.63;4.72;;;;;;;5.49;70.07;101370.47;4503145;31;20091;-67
2022/01/14 09:25:18;;;;;;;10.90;4.22;;;;;;;5.51;69.80;101362.66;4503108;31;20140;-67
2022/01/14 09:27:52;;;;;;;10.13;4.32;;;;;;;5.52;69.61;101340.94;4503145;31;20117;-67
2022/01/14 09:30:21;;;;;;;9.60;4.50;;;;;;;5.64;69.50;101335.97;4502877;31;20129;-66
2022/01/14 09:32:49;;;;;;;9.57;4.57;;;;;;;5.79;69.03;101337.19;4501390;31;20773;-66
2022/01/14 09:35:17;;;;;;;10.80;3.83;;;;;;;5.92;68.08;101345.37;4487085;31;20746;-67
2022/01/14 09:37:45;;;;;;;5.93;3.72;;;;;;;6.01;67.47;101339.47;4487069;31;20118;-66
2022/01/14 09:40:16;;;;;;;8.27;3.53;;;;;;;6.09;66.97;101337.91;4487087;31;20119;-66
2022/01/14 09:42:53;;;;;;;8.75;1.98;;;;;;;6.20;66.19;101340.75;4486936;31;20136;-65
2022/01/14 09:45:21;;;;;;;9.18;3.80;;;;;;;6.32;65.39;101341.00;4492088;31;20501;-66
2022/01/14 09:47:49;;;;;;;16.73;4.05;;;;;;;6.45;64.84;101336.91;4502419;31;20100;-65
2022/01/14 09:50:18;;;;;;;5.28;2.78;;;;;;;6.43;64.52;101329.03;4502651;31;20127;-66
2022/01/14 09:52:49;;;;;;;3.80;2.58;;;;;;;6.61;63.77;101349.47;4502670;31;20168;-66
2022/01/14 09:55:20;;;;;;;5.45;2.97;;;;;;;6.68;63.34;101353.97;4501856;31;20118;-66
2022/01/14 09:57:48;;;;;;;7.03;3.20;;;;;;;6.75;62.48;101340.97;4498940;31;20084;-65
2022/01/14 10:00:16;;;;;;;7.07;3.53;;;;;;;6.79;62.32;101342.81;4492413;31;20099;-66
2022/01/14 10:02:45;;;;;;;6.15;3.58;;;;;;;6.90;62.12;101336.91;4501736;31;20544;-66
2022/01/14 10:05:34;;;;;;;6.30;3.22;;;;;;;6.93;62.10;101320.38;4501608;31;20767;-67
2022/01/14 10:08:21;;;;;;;5.82;3.22;;;;;;;7.01;61.64;101315.25;4501161;31;20167;-65
2022/01/14 10:10:57;;;;;;;8.93;4.20;;;;;;;7.00;61.33;101298.66;4502579;31;20388;-64
2022/01/14 10:13:26;;;;;;;6.85;3.20;;;;;;;7.15;60.71;101282.31;4502305;31;20104;-67
2022/01/14 10:16:01;;;;;;;6.95;2.92;;;;;;;7.12;60.39;101279.62;4487445;31;20154;-68
2022/01/14 10:18:30;;;;;;;4.60;2.85;;;;;;;7.11;60.87;101280.50;4472321;31;20483;-67
2022/01/14 10:21:02;;;;;;;6.60;2.90;;;;;;;7.11;60.33;101283.12;4500753;31;20092;-68
2022/01/14 10:23:44;;;;;;;8.10;3.05;;;;;;;7.16;59.97;101281.44;4494883;31;20092;-67
2022/01/14 10:26:13;;;;;;;5.37;2.90;;;;;;;7.37;59.02;101273.03;4492009;31;20084;-68
2022/01/14 10:28:44;;;;;;;5.05;3.30;;;;;;;7.34;58.63;101263.38;4493206;31;20198;-68
2022/01/14 10:31:13;;;;;;;11.70;3.25;;;;;;;7.38;58.64;101262.56;4492026;31;20182;-68
2022/01/14 10:33:40;;;;;;;5.22;2.83;;;;;;;7.56;57.96;101267.22;4496293;31;20126;-69
2022/01/14 10:36:18;;;;;;;6.05;3.00;;;;;;;7.74;57.25;101265.69;4486185;31;20084;-67
2022/01/14 10:38:46;;;;;;;6.30;3.03;;;;;;;8.22;55.39;101261.94;4496086;31;20194;-69
2022/01/14 10:41:14;;;;;;;5.12;3.10;;;;;;;8.75;55.02;101269.56;4485870;31;20794;-68
2022/01/14 10:43:43;;;;;;;12.27;4.28;;;;;;;9.09;52.81;101274.25;4486510;31;20160;-68
2022/01/14 10:46:11;;;;;;;4.47;2.90;;;;;;;9.91;51.86;101254.63;4472046;31;20754;-69
2022/01/14 10:48:43;;;;;;;5.28;3.30;;;;;;;10.62;48.41;101262.81;4486401;31;20099;-68
2022/01/14 10:51:14;;;;;;;7.87;3.75;;;;;;;10.86;48.69;101247.03;4486653;31;20160;-69
2022/01/14 10:54:00;;;;;;;8.40;3.90;;;;;;;11.19;46.72;101239.97;4486568;31;20126;-68
2022/01/14 10:56:27;;;;;;;10.15;3.97;;;;;;;11.93;45.04;101233.69;4471883;31;20084;-69
2022/01/14 10:58:58;;;;;;;7.12;3.30;;;;;;;12.52;44.29;101236.03;4486189;31;20092;-68
2022/01/14 11:01:27;;;;;;;12.65;4.32;;;;;;;12.76;42.58;101225.31;4486027;31;20085;-69
2022/01/14 11:03:59;;;;;;;7.18;3.78;;;;;;;12.76;42.50;101227.06;4486368;31;20131;-70
2022/01/14 11:06:30;;;;;;;7.40;3.53;;;;;;;12.28;43.70;101215.91;4486522;31;20106;-69
2022/01/14 11:09:02;;;;;;;9.43;3.55;;;;;;;12.85;42.81;101217.28;4486343;31;20547;-69
2022/01/14 11:11:32;;;;;;;8.77;4.03;;;;;;;12.41;43.30;101212.31;4485980;31;20096;-68
2022/01/14 11:14:00;;;;;;;19.80;4.40;;;;;;;13.21;41.90;101204.62;4486125;31;20083;-69
2022/01/14 11:16:28;;;;;;;9.70;4.03;;;;;;;13.59;41.77;101201.59;4485403;31;20147;-69
2022/01/14 11:18:58;;;;;;;10.32;4.70;;;;;;;13.82;42.44;101195.19;4485780;31;20110;-67
2022/01/14 11:24:23;;;;;;;5.00;3.87;;;;;;;13.08;41.66;101173.91;4485771;31;20088;-66
2022/01/14 11:26:58;;;;;;;7.30;4.03;;;;;;;12.33;42.16;101179.75;4485652;31;20106;-67
2022/01/14 11:29:34;;;;;;;12.18;4.12;;;;;;;12.39;43.11;101167.38;4485885;31;20087;-66
2022/01/14 11:32:05;;;;;;;5.60;3.80;;;;;;;12.68;42.25;101182.16;4485645;31;20126;-66
2022/01/14 11:34:45;;;;;;;12.88;5.78;;;;;;;12.31;42.60;101157.75;4485747;31;20115;-67
2022/01/14 11:37:31;;;;;;;14.02;4.95;;;;;;;13.05;41.90;101161.56;4485287;31;20083;-67
2022/01/14 11:40:05;;;;;;;7.32;4.03;;;;;;;12.93;41.67;101151.09;4485254;31;20159;-68
2022/01/14 11:42:42;;;;;;;15.07;4.78;;;;;;;12.66;41.95;101160.16;4485614;31;20208;-68
2022/01/14 11:45:39;;;;;;;16.47;7.33;;;;;;;12.77;41.15;101138.91;4485507;31;20092;-67
2022/01/14 11:48:06;;;;;;;10.43;5.53;;;;;;;12.35;42.65;101122.50;4485262;31;20099;-68
2022/01/14 11:50:36;;;;;;;15.73;6.47;;;;;;;12.35;42.87;101126.00;4485760;31;20122;-68
2022/01/14 11:53:05;;;;;;;11.50;5.20;;;;;;;11.95;43.16;101109.56;4493632;31;20151;-67